Thorold, Canada
Current Conditions -  °F | °C
As of 9:00 PM on Sunday 19 Oct 2014 (Local Time) from CYSN Reporting Station
Scattered Clouds Scattered Clouds  
Wind Chill: 37°   Ceiling: Unl
Heat Index: 43°   Visibility: 15mi
Dew Point: 36°   Wind: 9mph
Humidity: 76%   Direction: 230°SW
Pressure: 30.03"   Gusts: NA
Location:  43.12°N, 79.2°W
Report Text: CYSN 200100Z 23008KT 15SM SCT240 06/02 A3003 RMK CI4 LAST STFD OBS / NEXT 201100 UTC SLP173
Loading
Personal Weather Stations






























Interactive Weather Map
Tropical Storm Tracking
New forecast layout! Learn more

10-Day Weather Forecast

Advertisements
Track Severe Weather on mobile